This is the latest recevied weather packets stored in our database for station/object E20YUC-1. If no packets are shown the sender has not sent any weather packets the latest 10 day(s).
| Time | Temp. | Humidity | Pressure | Rain* | Wind** | Luminosity | Snow |
|---|---|---|---|---|---|---|---|
| 1777260429 | 34.44° C | 65% | 997.7 hPa | 0 mm | 2.68 m/s, 90° | - | - |
| 1777260130 | 33.89° C | 65% | 997.8 hPa | 0 mm | 0 m/s | - | - |
| 1777259829 | 33.89° C | 67% | 997.8 hPa | 0 mm | 1.34 m/s, 90° | - | - |
| 1777259228 | 33.33° C | 68% | 997.9 hPa | 0 mm | 0 m/s | - | - |
| 1777258928 | 33.33° C | 68% | 997.9 hPa | 0 mm | 0.89 m/s, 22° | - | - |
| 1777258630 | 33.33° C | 69% | 997.9 hPa | 0 mm | 0 m/s | - | - |
| 1777258028 | 32.78° C | 69% | 998 hPa | 0 mm | 0.45 m/s, 22° | - | - |
| 1777257428 | 32.78° C | 70% | 998 hPa | 0 mm | 0.45 m/s, 22° | - | - |
| 1777257130 | 32.22° C | 71% | 998 hPa | 0 mm | 0 m/s | - | - |
| 1777256828 | 32.22° C | 71% | 998 hPa | 0 mm | 0.89 m/s, 22° | - | - |
| 1777256528 | 32.22° C | 72% | 997.9 hPa | 0 mm | 1.34 m/s, 22° | - | - |
| 1777256228 | 32.22° C | 72% | 997.9 hPa | 0 mm | 0.45 m/s, 22° | - | - |
| 1777255928 | 32.22° C | 73% | 997.9 hPa | 0 mm | 1.34 m/s, 22° | - | - |
| 1777255630 | 32.22° C | 74% | 998 hPa | 0 mm | 0 m/s | - | - |
| 1777255328 | 31.67° C | 74% | 998 hPa | 0 mm | 0 m/s | - | - |
| 1777255028 | 31.67° C | 74% | 998 hPa | 0 mm | 1.34 m/s, 22° | - | - |
| 1777254728 | 31.67° C | 74% | 998 hPa | 0 mm | 0.89 m/s, 0° | - | - |
| 1777254427 | 31.67° C | 74% | 998 hPa | 0 mm | 0.45 m/s, 90° | - | - |
| 1777254129 | 31.67° C | 75% | 998 hPa | 0 mm | 0 m/s | - | - |
| 1777253827 | 31.11° C | 75% | 997.9 hPa | 0 mm | 0 m/s | - | - |
| 1777253527 | 31.11° C | 75% | 997.9 hPa | 0 mm | 0.45 m/s, 22° | - | - |
| 1777253227 | 31.11° C | 75% | 997.8 hPa | 0 mm | 0 m/s | - | - |
| 1777252927 | 31.11° C | 75% | 997.8 hPa | 0 mm | 0 m/s | - | - |
| 1777252629 | 31.11° C | 75% | 997.6 hPa | 0 mm | 1.79 m/s, 22° | - | - |
| 1777252327 | 31.11° C | 75% | 997.4 hPa | 0 mm | 2.24 m/s, 22° | - | - |
* Rain latest hour (hover to see other rain measurements)
** Current wind speed in m/s (hover to see current wind gust speed)